createdAt,value
2022-12-01T00:01:06.691Z,28.05
2022-12-01T00:03:33.635Z,32.72
2022-12-01T00:06:02.003Z,35.95
2022-12-01T00:08:29.006Z,35.72
2022-12-01T00:10:55.426Z,31.90
2022-12-01T00:13:22.029Z,33.63
2022-12-01T00:15:48.378Z,31.20
2022-12-01T00:18:14.697Z,32.58
2022-12-01T00:20:41.070Z,36.83
2022-12-01T00:23:07.418Z,32.00
2022-12-01T00:25:33.783Z,29.65
2022-12-01T00:28:00.124Z,35.35
2022-12-01T00:30:26.498Z,34.63
2022-12-01T00:32:52.884Z,31.88
2022-12-01T00:35:19.373Z,33.07
2022-12-01T00:37:45.758Z,36.75
2022-12-01T00:40:12.697Z,31.50
2022-12-01T00:42:39.002Z,26.45
2022-12-01T00:45:06.051Z,29.73
2022-12-01T00:47:32.430Z,32.00
2022-12-01T00:49:58.736Z,33.80
2022-12-01T00:52:25.147Z,34.95
2022-12-01T00:54:51.567Z,34.03
2022-12-01T00:57:17.914Z,34.13
2022-12-01T00:59:44.222Z,33.10
2022-12-01T01:02:10.697Z,28.20
2022-12-01T01:04:37.591Z,30.95
2022-12-01T01:07:04.084Z,31.67
2022-12-01T01:09:32.143Z,31.05
2022-12-01T01:11:58.594Z,26.33
2022-12-01T01:14:25.386Z,28.75
2022-12-01T01:16:51.788Z,31.05
2022-12-01T01:19:18.489Z,30.08
2022-12-01T01:21:44.801Z,30.85
2022-12-01T01:24:11.156Z,30.38
2022-12-01T01:26:37.806Z,27.40
2022-12-01T01:29:07.686Z,28.65
2022-12-01T01:31:34.710Z,32.22
2022-12-01T01:34:01.337Z,32.40
2022-12-01T01:36:27.733Z,28.50
2022-12-01T01:38:55.153Z,38.53
2022-12-01T01:41:22.592Z,33.97
2022-12-01T01:43:52.974Z,31.15
2022-12-01T01:46:22.257Z,30.83
2022-12-01T01:49:09.463Z,32.87
2022-12-01T01:51:40.624Z,31.95
2022-12-01T01:54:32.912Z,33.92
2022-12-01T01:57:01.517Z,36.60
2022-12-01T01:59:31.542Z,32.63
2022-12-01T02:02:06.397Z,27.83
2022-12-01T02:04:35.942Z,38.25
2022-12-01T02:07:03.029Z,32.38
2022-12-01T02:09:29.386Z,36.95
2022-12-01T02:12:14.179Z,33.47
2022-12-01T02:15:08.506Z,32.85
2022-12-01T02:17:56.461Z,26.50
2022-12-01T02:20:39.547Z,36.22
2022-12-01T02:23:44.077Z,32.40
2022-12-01T02:26:28.340Z,29.42
2022-12-01T02:29:04.169Z,40.42
2022-12-01T02:31:55.302Z,34.38
2022-12-01T02:34:40.330Z,45.42
2022-12-01T02:37:15.978Z,35.03
2022-12-01T02:39:57.869Z,37.13
2022-12-01T02:43:12.128Z,34.67
2022-12-01T02:45:45.670Z,36.85
2022-12-01T02:48:18.779Z,38.85
2022-12-01T02:50:46.410Z,37.70
2022-12-01T02:53:16.973Z,38.72
2022-12-01T02:55:52.462Z,40.17
2022-12-01T02:58:19.452Z,37.60
2022-12-01T03:01:15.235Z,34.45
2022-12-01T03:03:55.336Z,36.85
2022-12-01T03:06:41.390Z,40.83
2022-12-01T03:09:29.179Z,29.75
2022-12-01T03:12:12.649Z,39.22
2022-12-01T03:14:46.610Z,37.40
2022-12-01T03:17:18.913Z,33.45
2022-12-01T03:20:12.557Z,33.60
2022-12-01T03:22:49.322Z,43.13
2022-12-01T03:25:17.505Z,37.40
2022-12-01T03:28:13.468Z,36.15
2022-12-01T03:30:36.527Z,36.05
2022-12-01T03:33:13.046Z,40.78
2022-12-01T03:35:52.914Z,38.47
2022-12-01T03:38:23.858Z,39.50
2022-12-01T03:40:54.233Z,32.92
2022-12-01T03:43:26.583Z,40.13
2022-12-01T03:46:07.458Z,41.08
2022-12-01T03:48:34.255Z,23.38
2022-12-01T03:51:13.926Z,37.85
2022-12-01T03:53:46.038Z,34.10
2022-12-01T03:56:15.828Z,32.38
2022-12-01T03:58:45.408Z,31.10
2022-12-01T04:01:12.398Z,36.22
2022-12-01T04:03:38.866Z,27.20
2022-12-01T04:06:05.624Z,36.33
2022-12-01T04:08:33.720Z,36.05
2022-12-01T04:11:00.352Z,28.13
2022-12-01T04:13:26.827Z,40.92
2022-12-01T04:15:54.623Z,37.92
2022-12-01T04:18:21.653Z,42.35
2022-12-01T04:20:49.364Z,33.22
2022-12-01T04:23:36.024Z,31.92
2022-12-01T04:26:04.388Z,35.13
2022-12-01T04:28:30.766Z,38.70
2022-12-01T04:30:57.132Z,36.83
2022-12-01T04:33:23.473Z,38.13
2022-12-01T04:35:57.537Z,33.88
2022-12-01T04:38:28.829Z,39.57
2022-12-01T04:40:56.770Z,39.47
2022-12-01T04:43:23.077Z,37.97
2022-12-01T04:45:49.397Z,35.25
2022-12-01T04:48:15.722Z,38.92
2022-12-01T04:50:42.111Z,32.37
2022-12-01T04:53:08.425Z,36.78
2022-12-01T04:55:39.294Z,37.95
2022-12-01T04:58:05.975Z,44.55
2022-12-01T05:00:32.796Z,38.83
2022-12-01T05:03:00.319Z,33.15
2022-12-01T05:05:26.900Z,40.40
2022-12-01T05:07:53.279Z,39.22
2022-12-01T05:10:19.709Z,33.10
2022-12-01T05:12:46.331Z,41.60
2022-12-01T05:15:13.293Z,40.33
2022-12-01T05:17:40.003Z,36.70
2022-12-01T05:20:25.973Z,36.50
2022-12-01T05:23:09.785Z,41.05
2022-12-01T05:25:38.564Z,38.15
2022-12-01T05:28:06.421Z,36.30
2022-12-01T05:30:32.812Z,35.50
2022-12-01T05:32:59.194Z,36.13
2022-12-01T05:35:25.514Z,38.05
2022-12-01T05:37:51.896Z,34.92
2022-12-01T05:40:18.306Z,45.35
2022-12-01T05:42:44.702Z,45.58
2022-12-01T05:45:11.298Z,42.00
2022-12-01T05:47:37.668Z,34.08
2022-12-01T05:50:06.000Z,38.28
2022-12-01T05:52:35.051Z,39.47
2022-12-01T05:55:02.333Z,44.83
2022-12-01T05:57:28.791Z,49.50
2022-12-01T05:59:55.175Z,37.20
2022-12-01T06:02:21.715Z,48.83
2022-12-01T06:04:48.212Z,41.27
2022-12-01T06:07:14.586Z,40.33
2022-12-01T06:09:40.965Z,42.08
2022-12-01T06:12:07.376Z,34.35
2022-12-01T06:14:33.765Z,36.92
2022-12-01T06:17:00.136Z,40.27
2022-12-01T06:19:26.661Z,39.78
2022-12-01T06:21:53.022Z,45.72
2022-12-01T06:24:19.390Z,39.90
2022-12-01T06:26:45.757Z,35.88
2022-12-01T06:29:12.172Z,39.17
2022-12-01T06:31:38.610Z,37.78
2022-12-01T06:34:05.034Z,42.88
2022-12-01T06:36:31.473Z,39.42
2022-12-01T06:38:57.783Z,37.38
2022-12-01T06:41:24.116Z,47.70
2022-12-01T06:43:50.454Z,35.90
2022-12-01T06:46:16.922Z,36.80
2022-12-01T06:48:43.351Z,44.22
2022-12-01T06:51:11.021Z,39.40
2022-12-01T06:53:37.476Z,37.20
2022-12-01T06:56:04.858Z,43.20
2022-12-01T06:58:31.922Z,36.25
2022-12-01T07:00:59.065Z,36.70
2022-12-01T07:03:25.911Z,43.05
2022-12-01T07:05:59.926Z,47.73
2022-12-01T07:08:27.615Z,35.13
2022-12-01T07:10:59.142Z,44.67
2022-12-01T07:13:30.102Z,46.92
2022-12-01T07:15:59.590Z,44.60
2022-12-01T07:18:26.043Z,45.73
2022-12-01T07:20:52.359Z,46.10
2022-12-01T07:23:18.768Z,46.80
2022-12-01T07:25:45.258Z,52.50
2022-12-01T07:28:11.647Z,54.50
2022-12-01T07:30:38.113Z,42.33
2022-12-01T07:33:04.562Z,45.53
2022-12-01T07:35:30.865Z,42.60
2022-12-01T07:37:57.278Z,48.95
2022-12-01T07:40:23.796Z,37.50
2022-12-01T07:42:50.103Z,47.97
2022-12-01T07:45:16.457Z,38.58
2022-12-01T07:47:44.455Z,51.22
2022-12-01T07:50:11.267Z,43.78
2022-12-01T07:52:37.641Z,48.75
2022-12-01T07:55:04.288Z,45.63
2022-12-01T07:57:30.618Z,45.78
2022-12-01T07:59:57.014Z,51.45
2022-12-01T08:02:23.362Z,54.05
2022-12-01T08:04:49.767Z,53.10
2022-12-01T08:07:16.164Z,48.17
2022-12-01T08:09:42.610Z,51.08
2022-12-01T08:12:09.310Z,52.10
2022-12-01T08:14:35.662Z,57.00
2022-12-01T08:17:02.039Z,51.33
2022-12-01T08:19:29.286Z,58.87
2022-12-01T08:21:55.709Z,43.20
2022-12-01T08:24:22.057Z,49.92
2022-12-01T08:26:48.417Z,50.72
2022-12-01T08:29:19.973Z,48.38
2022-12-01T08:31:47.265Z,49.03
2022-12-01T08:34:13.620Z,57.95
2022-12-01T08:36:40.111Z,54.22
2022-12-01T08:39:07.900Z,58.03
2022-12-01T08:41:34.562Z,56.80
2022-12-01T08:44:01.748Z,56.07
2022-12-01T08:46:31.932Z,46.03
2022-12-01T08:48:58.431Z,51.88
2022-12-01T08:51:25.656Z,54.75
2022-12-01T08:53:52.300Z,51.22
2022-12-01T08:56:23.958Z,54.93
2022-12-01T08:58:51.576Z,62.55
2022-12-01T09:01:19.149Z,58.50
2022-12-01T09:03:45.590Z,47.63
2022-12-01T09:06:20.622Z,55.95
2022-12-01T09:08:48.513Z,49.42
2022-12-01T09:11:17.529Z,46.97
2022-12-01T09:13:48.632Z,53.60
2022-12-01T09:16:18.785Z,52.97
2022-12-01T09:18:46.513Z,57.25
2022-12-01T09:21:21.822Z,50.67
2022-12-01T09:23:48.437Z,57.25
2022-12-01T09:26:18.398Z,56.13
2022-12-01T09:28:45.919Z,50.75
2022-12-01T09:31:14.318Z,60.78
2022-12-01T09:33:40.744Z,52.40
2022-12-01T09:36:08.989Z,56.63
2022-12-01T09:38:36.594Z,64.93
2022-12-01T09:41:07.600Z,51.47
2022-12-01T09:43:46.833Z,53.97
2022-12-01T09:46:25.943Z,58.42
2022-12-01T09:48:54.041Z,52.72
2022-12-01T09:51:23.569Z,57.65
2022-12-01T09:53:52.658Z,48.67
2022-12-01T09:56:31.988Z,62.13
2022-12-01T09:59:01.421Z,49.72
2022-12-01T10:01:32.594Z,54.10
2022-12-01T10:04:05.022Z,58.25
2022-12-01T10:06:38.531Z,49.28
2022-12-01T10:09:28.249Z,55.05
2022-12-01T10:12:01.750Z,44.17
2022-12-01T10:14:32.719Z,47.60
2022-12-01T10:17:07.838Z,44.05
2022-12-01T10:20:16.710Z,43.53
2022-12-01T10:23:01.470Z,47.67
2022-12-01T10:25:33.087Z,50.30
2022-12-01T10:27:59.457Z,53.07
2022-12-01T10:30:26.279Z,51.47
2022-12-01T10:33:25.008Z,51.42
2022-12-01T10:35:52.312Z,51.75
2022-12-01T10:38:28.369Z,43.50
2022-12-01T10:40:59.659Z,44.03
2022-12-01T10:43:34.351Z,52.10
2022-12-01T10:46:12.303Z,53.17
2022-12-01T10:48:53.829Z,45.78
2022-12-01T10:51:22.518Z,51.28
2022-12-01T10:53:50.011Z,45.93
2022-12-01T10:56:18.270Z,52.47
2022-12-01T10:58:51.846Z,57.42
2022-12-01T11:01:23.733Z,46.47
2022-12-01T11:03:54.566Z,46.58
2022-12-01T11:06:24.718Z,46.63
2022-12-01T11:08:57.447Z,46.13
2022-12-01T11:11:23.742Z,48.38
2022-12-01T11:13:50.850Z,51.17
2022-12-01T11:16:39.373Z,44.70
2022-12-01T11:19:30.072Z,49.00
2022-12-01T11:22:18.594Z,45.10
2022-12-01T11:24:55.615Z,39.05
2022-12-01T11:27:25.855Z,42.58
2022-12-01T11:29:56.002Z,47.03
2022-12-01T11:32:26.274Z,43.87
2022-12-01T11:35:23.181Z,40.63
2022-12-01T11:38:28.263Z,42.25
2022-12-01T11:40:56.049Z,45.95
2022-12-01T11:43:27.817Z,41.63
2022-12-01T11:45:57.063Z,41.93
2022-12-01T11:48:26.744Z,40.63
2022-12-01T11:51:29.840Z,43.42
2022-12-01T11:54:21.225Z,36.72
2022-12-01T11:56:56.166Z,40.92
2022-12-01T11:59:30.901Z,46.50
2022-12-01T12:02:04.386Z,45.25
2022-12-01T12:04:36.723Z,41.75
2022-12-01T12:07:32.118Z,38.35
2022-12-01T12:10:19.730Z,45.15
2022-12-01T12:13:16.450Z,35.80
2022-12-01T12:16:07.717Z,34.70
2022-12-01T12:18:43.818Z,37.40
2022-12-01T12:21:27.729Z,39.30
2022-12-01T12:24:11.909Z,36.35
2022-12-01T12:26:51.951Z,38.97
2022-12-01T12:29:33.217Z,38.65
2022-12-01T12:31:59.463Z,40.17
2022-12-01T12:34:35.740Z,39.75
2022-12-01T12:37:30.919Z,34.17
2022-12-01T12:40:26.583Z,39.20
2022-12-01T12:43:04.921Z,39.47
2022-12-01T12:46:00.892Z,35.22
2022-12-01T12:49:19.605Z,36.67
2022-12-01T12:51:52.792Z,35.75
2022-12-01T12:54:31.424Z,32.53
2022-12-01T12:57:06.251Z,32.80
2022-12-01T12:59:48.859Z,29.23
2022-12-01T13:02:27.759Z,32.25
2022-12-01T13:05:03.029Z,29.95
2022-12-01T13:07:51.313Z,26.77
2022-12-01T13:10:44.323Z,26.90
2022-12-01T13:13:37.515Z,30.90
2022-12-01T13:16:06.900Z,31.63
2022-12-01T13:18:49.413Z,30.88
2022-12-01T13:21:21.135Z,34.13
2022-12-01T13:23:49.683Z,32.17
2022-12-01T13:26:18.676Z,34.75
2022-12-01T13:28:51.733Z,33.38
2022-12-01T13:31:20.105Z,31.23
2022-12-01T13:33:58.633Z,36.60
2022-12-01T13:39:23.511Z,32.50
2022-12-01T13:42:01.930Z,35.95
2022-12-01T13:44:30.999Z,35.22
2022-12-01T13:47:25.360Z,37.50
2022-12-01T13:49:52.973Z,37.20
2022-12-01T13:52:22.164Z,31.45
2022-12-01T13:55:02.684Z,29.67
2022-12-01T13:57:31.865Z,30.15
2022-12-01T13:59:58.169Z,35.57
2022-12-01T14:02:26.591Z,25.50
2022-12-01T14:04:53.112Z,30.38
2022-12-01T14:07:34.992Z,25.48
2022-12-01T14:10:23.547Z,28.33
2022-12-01T14:12:51.370Z,26.35
2022-12-01T14:15:29.256Z,30.92
2022-12-01T14:18:17.737Z,31.67
2022-12-01T14:20:46.370Z,36.00
2022-12-01T14:23:17.006Z,30.10
2022-12-01T14:26:01.557Z,36.30
2022-12-01T14:28:55.708Z,29.50
2022-12-01T14:31:23.873Z,33.00
2022-12-01T14:34:00.338Z,37.00
2022-12-01T14:36:35.984Z,32.03
2022-12-01T14:39:10.902Z,35.92
2022-12-01T14:41:45.848Z,32.28
2022-12-01T14:44:21.076Z,30.90
2022-12-01T14:47:05.033Z,36.05
2022-12-01T14:49:49.968Z,27.10
2022-12-01T14:52:28.418Z,30.63
2022-12-01T14:55:12.001Z,24.17
2022-12-01T14:57:42.025Z,26.65
2022-12-01T15:00:29.792Z,34.33
2022-12-01T15:03:00.296Z,28.93
2022-12-01T15:05:32.513Z,31.98
2022-12-01T15:08:40.342Z,32.33
2022-12-01T15:11:07.882Z,32.25
2022-12-01T15:13:55.219Z,31.65
2022-12-01T15:16:28.769Z,27.45
2022-12-01T15:18:55.241Z,29.33
2022-12-01T15:21:30.701Z,28.05
2022-12-01T15:23:57.026Z,30.80
2022-12-01T15:26:27.186Z,25.05
2022-12-01T15:29:14.571Z,30.90
2022-12-01T15:31:43.759Z,36.60
2022-12-01T15:34:20.868Z,27.77
2022-12-01T15:36:48.397Z,29.73
2022-12-01T15:39:21.272Z,30.80
2022-12-01T15:41:53.755Z,26.63
2022-12-01T15:44:34.943Z,37.33
2022-12-01T15:47:32.442Z,27.98
2022-12-01T15:49:58.855Z,30.38
2022-12-01T15:52:25.287Z,31.08
2022-12-01T15:54:52.191Z,35.50
2022-12-01T15:57:21.352Z,30.13
2022-12-01T15:59:53.673Z,31.55
2022-12-01T16:02:20.026Z,33.33
2022-12-01T16:04:47.638Z,41.25
2022-12-01T16:07:14.586Z,32.30
2022-12-01T16:10:02.581Z,30.55
2022-12-01T16:12:34.682Z,33.42
2022-12-01T16:15:01.011Z,32.95
2022-12-01T16:17:40.134Z,29.23
2022-12-01T16:20:30.975Z,26.63
2022-12-01T16:23:00.762Z,27.45
2022-12-01T16:25:34.795Z,35.55
2022-12-01T16:28:02.030Z,32.13
2022-12-01T16:30:37.292Z,31.92
2022-12-01T16:33:06.902Z,28.13
2022-12-01T16:35:34.246Z,30.40
2022-12-01T16:38:11.777Z,34.45
2022-12-01T16:40:41.450Z,37.30
2022-12-01T16:43:23.263Z,31.52
2022-12-01T16:45:52.946Z,33.33
2022-12-01T16:48:20.303Z,34.70
2022-12-01T16:50:50.850Z,35.55
2022-12-01T16:53:17.575Z,30.02
2022-12-01T16:55:54.573Z,33.00
2022-12-01T16:58:21.088Z,50.83
2022-12-01T17:00:52.474Z,34.65
2022-12-01T17:03:21.983Z,47.53
2022-12-01T17:05:49.151Z,46.60
2022-12-01T17:08:16.483Z,44.28
2022-12-01T17:10:44.738Z,44.50
2022-12-01T17:13:11.381Z,42.63
2022-12-01T17:15:45.899Z,37.95
2022-12-01T17:18:13.824Z,38.13
2022-12-01T17:20:40.316Z,42.58
2022-12-01T17:23:06.961Z,46.50
2022-12-01T17:25:33.482Z,37.55
2022-12-01T17:27:59.810Z,44.60
2022-12-01T17:30:26.204Z,44.85
2022-12-01T17:32:52.586Z,38.80
2022-12-01T17:35:19.202Z,38.40
2022-12-01T17:37:45.506Z,33.70
2022-12-01T17:40:15.734Z,33.50
2022-12-01T17:42:47.001Z,34.95
2022-12-01T17:45:17.512Z,32.05
2022-12-01T17:47:43.884Z,32.80
2022-12-01T17:50:10.663Z,37.47
2022-12-01T17:52:37.049Z,34.90
2022-12-01T17:55:04.174Z,33.50
2022-12-01T17:57:30.535Z,38.20
2022-12-01T17:59:56.965Z,35.87
2022-12-01T18:02:23.603Z,31.20
2022-12-01T18:04:50.399Z,33.47
2022-12-01T18:07:16.959Z,38.67
2022-12-01T18:09:43.324Z,37.65
2022-12-01T18:12:09.697Z,38.67
2022-12-01T18:14:37.456Z,34.65
2022-12-01T18:17:05.170Z,35.72
2022-12-01T18:19:31.596Z,36.72
2022-12-01T18:21:58.011Z,36.60
2022-12-01T18:24:24.374Z,31.03
2022-12-01T18:26:50.807Z,32.92
2022-12-01T18:29:25.610Z,38.88
2022-12-01T18:31:56.358Z,30.80
2022-12-01T18:34:23.208Z,37.25
2022-12-01T18:36:49.984Z,39.43
2022-12-01T18:39:16.529Z,34.10
2022-12-01T18:41:43.092Z,31.27
2022-12-01T18:44:09.647Z,39.35
2022-12-01T18:46:36.266Z,39.78
2022-12-01T18:49:04.546Z,39.70
2022-12-01T18:51:33.046Z,36.72
2022-12-01T18:54:01.226Z,40.70
2022-12-01T18:56:28.549Z,35.17
2022-12-01T18:58:56.346Z,33.45
2022-12-01T19:01:28.704Z,38.10
2022-12-01T19:03:55.808Z,42.70
2022-12-01T19:06:22.906Z,33.70
2022-12-01T19:08:49.431Z,34.28
2022-12-01T19:11:16.738Z,41.03
2022-12-01T19:13:43.203Z,37.77
2022-12-01T19:16:14.337Z,36.67
2022-12-01T19:18:41.593Z,37.30
2022-12-01T19:21:09.589Z,44.55
2022-12-01T19:23:36.365Z,34.50
2022-12-01T19:26:07.434Z,34.87
2022-12-01T19:28:35.292Z,45.53
2022-12-01T19:31:07.007Z,39.03
2022-12-01T19:33:33.407Z,39.60
2022-12-01T19:36:07.239Z,36.28
2022-12-01T19:38:33.617Z,42.10
2022-12-01T19:41:00.100Z,42.60
2022-12-01T19:43:26.480Z,37.45
2022-12-01T19:45:52.896Z,36.50
2022-12-01T19:48:19.295Z,43.10
2022-12-01T19:50:45.672Z,45.97
2022-12-01T19:53:11.990Z,37.72
2022-12-01T19:55:38.793Z,39.85
2022-12-01T19:58:05.885Z,39.05
2022-12-01T20:00:32.406Z,39.60
2022-12-01T20:03:00.072Z,42.67
2022-12-01T20:05:26.495Z,42.83
2022-12-01T20:07:52.873Z,44.17
2022-12-01T20:10:20.343Z,43.90
2022-12-01T20:12:47.477Z,43.15
2022-12-01T20:15:14.858Z,36.37
2022-12-01T20:17:41.770Z,44.00
2022-12-01T20:20:09.361Z,43.55
2022-12-01T20:22:36.751Z,40.25
2022-12-01T20:25:04.506Z,38.35
2022-12-01T20:27:31.697Z,43.97
2022-12-01T20:29:58.118Z,45.38
2022-12-01T20:32:24.740Z,42.95
2022-12-01T20:34:51.501Z,37.45
2022-12-01T20:37:18.077Z,40.80
2022-12-01T20:39:44.448Z,48.27
2022-12-01T20:42:11.309Z,41.88
2022-12-01T20:44:37.958Z,46.03
2022-12-01T20:47:04.415Z,43.83
2022-12-01T20:49:30.761Z,39.75
2022-12-01T20:51:57.304Z,41.77
2022-12-01T20:54:28.447Z,39.08
2022-12-01T20:56:55.559Z,39.97
2022-12-01T20:59:21.916Z,42.70
2022-12-01T21:01:48.350Z,39.13
2022-12-01T21:04:14.716Z,37.37
2022-12-01T21:06:41.098Z,40.40
2022-12-01T21:09:08.301Z,38.03
2022-12-01T21:12:04.936Z,39.92
2022-12-01T21:15:02.319Z,42.92
2022-12-01T21:17:35.303Z,36.90
2022-12-01T21:20:08.242Z,38.17
2022-12-01T21:22:36.025Z,49.78
2022-12-01T21:25:11.882Z,47.55
2022-12-01T21:27:38.318Z,43.30
2022-12-01T21:30:29.370Z,46.35
2022-12-01T21:33:13.164Z,40.65
2022-12-01T21:35:39.541Z,48.30
2022-12-01T21:38:12.294Z,47.33
2022-12-01T21:40:42.871Z,44.20
2022-12-01T21:43:20.331Z,43.00
2022-12-01T21:45:55.330Z,41.35
2022-12-01T21:48:25.571Z,43.97
2022-12-01T21:50:59.422Z,36.95
2022-12-01T21:53:32.303Z,47.28
2022-12-01T21:55:58.646Z,37.08
2022-12-01T21:58:30.516Z,33.53
2022-12-01T22:00:58.894Z,40.13
2022-12-01T22:03:29.798Z,36.13
2022-12-01T22:06:28.695Z,41.63
2022-12-01T22:08:57.760Z,41.77
2022-12-01T22:11:28.852Z,45.10
2022-12-01T22:14:24.498Z,36.92
2022-12-01T22:17:14.501Z,45.80
2022-12-01T22:19:45.684Z,39.08
2022-12-01T22:22:27.295Z,35.87
2022-12-01T22:25:01.719Z,40.67
2022-12-01T22:27:37.504Z,38.22
2022-12-01T22:30:06.535Z,38.95
2022-12-01T22:32:35.946Z,37.53
2022-12-01T22:35:20.779Z,37.77
2022-12-01T22:37:52.306Z,42.55
2022-12-01T22:40:49.249Z,36.00
2022-12-01T22:43:15.614Z,43.17
2022-12-01T22:45:43.791Z,41.88
2022-12-01T22:48:39.727Z,41.43
2022-12-01T22:51:21.342Z,42.00
2022-12-01T22:53:48.485Z,44.03
2022-12-01T22:56:36.426Z,48.33
2022-12-01T22:59:14.617Z,40.95
2022-12-01T23:01:48.463Z,44.33
2022-12-01T23:04:22.293Z,49.22
2022-12-01T23:06:57.129Z,48.53
2022-12-01T23:09:30.998Z,48.58
2022-12-01T23:12:09.645Z,50.33
2022-12-01T23:14:49.518Z,45.00
2022-12-01T23:17:37.025Z,39.33
2022-12-01T23:20:27.865Z,45.67
2022-12-01T23:22:56.164Z,46.13
2022-12-01T23:25:24.076Z,52.28
2022-12-01T23:27:52.515Z,48.13
2022-12-01T23:30:21.245Z,52.60
2022-12-01T23:32:57.540Z,53.20
2022-12-01T23:35:23.920Z,52.08
2022-12-01T23:37:50.438Z,45.35
2022-12-01T23:40:22.372Z,52.77
2022-12-01T23:42:48.920Z,46.83
2022-12-01T23:45:22.831Z,54.53
2022-12-01T23:47:50.048Z,58.38
2022-12-01T23:50:23.074Z,58.42
2022-12-01T23:52:49.469Z,57.90
2022-12-01T23:55:30.859Z,56.35
2022-12-01T23:57:58.708Z,56.05
